Time;durP1;ratioP1;P1;durP2;ratioP2;P2;SDS_P1;SDS_P2;PMS_P1;PMS_P2;Temp;Humidity;BMP_temperature;BMP_pressure;BME280_temperature;BME280_humidity;BME280_pressure;Samples;Min_cycle;Max_cycle;Signal;HPM_P1;HPM_P2
2024/02/18 00:04:59;;;;;;;0.00;0.00;;;;;;;7.65;61.98;102972.56;15792708;28;20048;-50
2024/02/18 00:12:34;;;;;;;0.70;0.28;;;;;;;8.19;60.79;102976.59;15772632;28;20048;-51
2024/02/18 00:20:16;;;;;;;6.75;1.30;;;;;;;8.45;60.40;102981.44;15769754;28;20493;-51
2024/02/18 00:27:51;;;;;;;0.00;0.00;;;;;;;7.78;61.46;102985.66;15781357;28;20036;-51
2024/02/18 00:35:28;;;;;;;0.00;0.00;;;;;;;8.13;60.58;102981.66;15764123;28;20396;-51
2024/02/18 00:43:06;;;;;;;0.00;0.00;;;;;;;8.12;60.49;102971.97;15784735;28;20043;-49
2024/02/18 00:50:40;;;;;;;0.00;0.00;;;;;;;8.29;60.61;102970.41;15775801;28;20044;-50
2024/02/18 00:58:16;;;;;;;0.60;0.60;;;;;;;8.10;60.98;102961.38;15776939;28;20516;-49
2024/02/18 01:05:50;;;;;;;0.00;0.00;;;;;;;7.72;63.38;102955.97;15747348;28;20044;-50
2024/02/18 01:13:25;;;;;;;4.47;1.48;;;;;;;7.56;62.67;102953.84;15773806;28;20154;-50
2024/02/18 01:20:59;;;;;;;0.00;0.00;;;;;;;7.12;62.82;102951.38;15773853;28;20044;-51
2024/02/18 01:28:34;;;;;;;0.00;0.00;;;;;;;7.96;60.48;102940.41;15772967;28;20032;-52
2024/02/18 01:36:08;;;;;;;0.10;0.10;;;;;;;8.15;59.18;102931.53;15772741;28;20043;-49
2024/02/18 01:43:44;;;;;;;0.00;0.00;;;;;;;8.18;58.89;102937.47;15774571;28;20610;-52
2024/02/18 01:51:19;;;;;;;0.00;0.00;;;;;;;7.72;61.22;102938.09;15761884;28;20044;-50
2024/02/18 01:58:54;;;;;;;0.55;0.55;;;;;;;7.94;60.01;102942.38;15777129;28;20048;-50
2024/02/18 02:06:30;;;;;;;0.00;0.00;;;;;;;7.90;60.37;102932.94;15776965;28;20105;-51
2024/02/18 02:14:07;;;;;;;0.25;0.25;;;;;;;7.62;60.11;102948.78;15768355;28;20392;-48
2024/02/18 02:21:40;;;;;;;0.00;0.00;;;;;;;7.42;61.54;102947.03;15811405;28;20054;-50
2024/02/18 02:29:16;;;;;;;0.00;0.00;;;;;;;7.20;62.67;102933.88;15799544;28;20062;-52
2024/02/18 02:36:53;;;;;;;0.00;0.00;;;;;;;6.90;62.06;102924.84;15766437;28;20052;-53
2024/02/18 02:44:29;;;;;;;0.00;0.00;;;;;;;6.86;61.40;102907.44;15781957;28;20071;-49
2024/02/18 02:52:11;;;;;;;0.00;0.00;;;;;;;6.24;64.88;102903.78;15785427;28;20258;-51
2024/02/18 02:59:49;;;;;;;0.00;0.00;;;;;;;6.34;64.24;102907.41;15768656;28;20049;-51
2024/02/18 03:07:36;;;;;;;0.00;0.00;;;;;;;6.01;65.25;102903.03;15773998;28;20047;-48
2024/02/18 03:15:13;;;;;;;0.00;0.00;;;;;;;5.82;65.31;102900.16;15780149;28;20611;-48
2024/02/18 03:22:47;;;;;;;1.85;0.28;;;;;;;5.30;67.50;102907.91;15780879;28;20091;-47
2024/02/18 03:30:25;;;;;;;0.00;0.00;;;;;;;5.01;69.12;102893.38;15793541;28;20040;-51
2024/02/18 03:38:01;;;;;;;0.00;0.00;;;;;;;4.95;68.96;102880.56;15798477;28;20055;-49
2024/02/18 03:45:37;;;;;;;1.10;1.00;;;;;;;4.72;69.74;102877.06;15766918;28;20058;-50
2024/02/18 03:53:12;;;;;;;0.00;0.00;;;;;;;4.80;69.10;102877.28;15801094;28;20603;-48
2024/02/18 04:00:51;;;;;;;0.00;0.00;;;;;;;4.61;69.21;102878.72;15790104;22;21322;-46
2024/02/18 04:08:25;;;;;;;0.00;0.00;;;;;;;4.42;69.17;102873.13;15707259;28;20048;-50
2024/02/18 04:16:03;;;;;;;0.00;0.00;;;;;;;3.72;72.13;102883.72;15724085;28;20048;-48
2024/02/18 04:23:38;;;;;;;0.43;0.43;;;;;;;3.93;71.30;102865.38;15727430;28;20052;-49
2024/02/18 04:31:13;;;;;;;0.30;0.20;;;;;;;3.21;73.60;102894.50;15699137;28;20037;-45
2024/02/18 04:38:50;;;;;;;0.00;0.00;;;;;;;3.84;72.10;102874.88;15725232;28;20649;-47
2024/02/18 04:46:26;;;;;;;0.00;0.00;;;;;;;3.52;73.36;102859.47;15710244;28;20107;-46
2024/02/18 04:54:10;;;;;;;0.63;0.63;;;;;;;3.78;73.72;102865.53;15700780;28;20051;-46
2024/02/18 05:01:48;;;;;;;0.00;0.00;;;;;;;3.35;75.32;102864.31;15693060;28;20052;-46
2024/02/18 05:09:27;;;;;;;0.00;0.00;;;;;;;3.98;73.78;102889.78;15704326;28;20049;-49
2024/02/18 05:17:03;;;;;;;0.00;0.00;;;;;;;3.66;72.92;102876.22;15684430;28;20076;-47
2024/02/18 05:24:37;;;;;;;0.00;0.00;;;;;;;3.67;73.82;102865.47;15681055;28;20101;-47
2024/02/18 05:32:12;;;;;;;0.98;0.98;;;;;;;3.61;73.88;102863.28;15733131;28;20124;-48
2024/02/18 05:39:46;;;;;;;0.03;0.03;;;;;;;3.48;73.44;102862.47;15728455;28;20114;-49
2024/02/18 05:47:22;;;;;;;0.00;0.00;;;;;;;3.63;74.41;102839.25;15700374;28;20135;-46
2024/02/18 05:55:01;;;;;;;0.10;0.10;;;;;;;3.29;76.02;102839.91;15701057;28;20051;-46
2024/02/18 06:02:36;;;;;;;0.10;0.10;;;;;;;3.25;74.71;102843.75;15684498;28;20565;-47
2024/02/18 06:10:10;;;;;;;0.30;0.30;;;;;;;3.43;74.09;102836.25;15701312;28;20037;-48
2024/02/18 06:17:48;;;;;;;0.10;0.10;;;;;;;3.64;73.88;102831.19;15700274;28;20076;-49
2024/02/18 06:25:37;;;;;;;1.48;0.40;;;;;;;3.82;73.70;102840.44;15689777;28;20051;-50
2024/02/18 06:33:12;;;;;;;0.30;0.30;;;;;;;3.63;73.16;102837.44;15710684;28;20060;-49
2024/02/18 06:40:46;;;;;;;0.08;0.08;;;;;;;3.60;73.49;102831.53;15704488;28;20041;-45
2024/02/18 06:48:22;;;;;;;0.00;0.00;;;;;;;3.92;73.95;102835.28;15690868;28;20045;-46
2024/02/18 06:55:56;;;;;;;0.35;0.35;;;;;;;3.27;76.05;102822.41;15701195;28;20119;-49
2024/02/18 07:03:32;;;;;;;0.00;0.00;;;;;;;4.29;73.63;102821.84;15715131;28;20417;-48
2024/02/18 07:11:10;;;;;;;0.00;0.00;;;;;;;3.87;74.98;102805.56;15721031;28;20047;-46
2024/02/18 07:18:45;;;;;;;0.40;0.40;;;;;;;3.66;77.64;102813.31;15717576;28;20045;-45
2024/02/18 07:26:21;;;;;;;0.00;0.00;;;;;;;4.24;75.58;102813.38;15703022;28;20041;-50
2024/02/18 07:33:56;;;;;;;0.00;0.00;;;;;;;4.85;73.62;102806.81;15712543;28;20094;-47
2024/02/18 07:41:30;;;;;;;0.70;0.47;;;;;;;4.90;73.74;102782.47;15713740;28;20068;-47
2024/02/18 07:49:05;;;;;;;0.10;0.10;;;;;;;4.82;74.17;102775.09;15683026;28;20083;-51
2024/02/18 07:56:45;;;;;;;0.00;0.00;;;;;;;5.01;74.17;102774.47;15686279;28;20045;-49
2024/02/18 08:04:20;;;;;;;0.10;0.10;;;;;;;5.27;73.19;102775.03;15719878;28;20477;-48
2024/02/18 08:11:54;;;;;;;0.00;0.00;;;;;;;5.63;72.08;102752.47;15710542;28;20048;-48
2024/02/18 08:19:31;;;;;;;1.77;1.55;;;;;;;5.98;70.82;102748.69;15700240;28;20044;-46
2024/02/18 08:27:05;;;;;;;1.45;1.35;;;;;;;5.75;69.83;102742.63;15681544;28;20045;-50
2024/02/18 08:34:46;;;;;;;0.00;0.00;;;;;;;5.89;70.47;102722.78;15698061;28;20102;-49
2024/02/18 08:42:20;;;;;;;0.10;0.10;;;;;;;5.98;69.83;102718.53;15692018;28;20045;-45
2024/02/18 08:49:57;;;;;;;0.28;0.28;;;;;;;6.00;69.52;102704.09;15711808;28;20045;-49
2024/02/18 08:57:30;;;;;;;0.30;0.30;;;;;;;6.17;70.37;102696.47;15694320;28;20044;-45
2024/02/18 09:05:06;;;;;;;0.00;0.00;;;;;;;5.96;70.80;102683.16;15683487;28;20040;-49
2024/02/18 09:12:40;;;;;;;0.00;0.00;;;;;;;6.17;71.21;102673.31;15674550;28;20043;-50
2024/02/18 09:20:16;;;;;;;0.00;0.00;;;;;;;6.21;71.07;102663.22;15672935;28;20475;-46
2024/02/18 09:27:50;;;;;;;0.00;0.00;;;;;;;6.08;71.09;102645.63;15728084;28;20048;-47
2024/02/18 09:35:26;;;;;;;;;;;;;;;6.79;69.54;102642.88;15735321;28;20041;-48
2024/02/18 09:43:01;;;;;;;0.57;0.43;;;;;;;6.47;70.28;102639.56;15735591;28;19926;-51
2024/02/18 09:50:36;;;;;;;1.08;0.88;;;;;;;6.78;69.02;102635.00;15685005;28;20055;-46
2024/02/18 09:58:12;;;;;;;0.17;0.17;;;;;;;6.99;69.26;102633.03;15674588;28;20053;-51
2024/02/18 10:05:47;;;;;;;0.10;0.10;;;;;;;7.03;68.16;102591.72;15677698;28;20049;-50
2024/02/18 10:13:23;;;;;;;0.10;0.05;;;;;;;8.17;65.45;102612.09;15691871;28;20401;-53
2024/02/18 10:20:59;;;;;;;2.60;0.43;;;;;;;8.15;65.05;102603.38;15747517;28;20036;-49
2024/02/18 10:28:34;;;;;;;0.00;0.00;;;;;;;8.05;65.40;102585.69;15748201;28;20447;-49
2024/02/18 10:36:11;;;;;;;3.50;1.25;;;;;;;8.90;63.34;102577.25;15746480;28;20505;-52
2024/02/18 10:43:53;;;;;;;0.00;0.00;;;;;;;9.17;62.13;102562.91;15744060;28;20048;-50
2024/02/18 10:51:34;;;;;;;0.00;0.00;;;;;;;9.71;60.49;102542.16;15727864;28;20428;-52
2024/02/18 10:59:14;;;;;;;0.00;0.00;;;;;;;9.48;61.59;102527.63;15691941;28;20106;-51
2024/02/18 11:06:50;;;;;;;0.30;0.20;;;;;;;8.98;62.67;102498.81;15733792;28;20466;-49
2024/02/18 11:14:24;;;;;;;0.05;0.05;;;;;;;9.25;62.45;102491.63;15732494;28;20106;-50
2024/02/18 11:22:01;;;;;;;0.00;0.00;;;;;;;9.26;63.37;102466.50;15692640;28;20067;-48
2024/02/18 11:29:45;;;;;;;0.00;0.00;;;;;;;9.80;62.21;102453.69;15687341;28;20049;-48
2024/02/18 11:37:32;;;;;;;0.00;0.00;;;;;;;9.62;63.33;102432.34;15677728;28;20075;-48
2024/02/18 11:45:12;;;;;;;0.00;0.00;;;;;;;10.35;62.03;102410.19;15711894;28;20067;-52
2024/02/18 11:52:49;;;;;;;0.22;0.20;;;;;;;10.80;60.52;102406.13;15679852;28;20255;-50
2024/02/18 12:00:23;;;;;;;0.00;0.00;;;;;;;10.85;60.50;102390.34;15680063;28;20044;-52
2024/02/18 12:07:59;;;;;;;0.10;0.10;;;;;;;10.86;60.48;102370.50;15735560;28;20105;-51
2024/02/18 12:15:33;;;;;;;0.08;0.08;;;;;;;11.06;60.87;102354.84;15718246;28;20124;-48
2024/02/18 12:23:08;;;;;;;0.00;0.00;;;;;;;11.71;59.10;102333.84;15706174;28;20220;-48
2024/02/18 12:30:43;;;;;;;0.03;0.03;;;;;;;11.58;59.39;102328.22;15683396;28;20528;-51
2024/02/18 12:38:18;;;;;;;0.00;0.00;;;;;;;11.29;60.50;102318.13;15673367;28;20448;-49
2024/02/18 12:45:54;;;;;;;0.00;0.00;;;;;;;11.10;60.88;102305.97;15714999;28;20048;-51
2024/02/18 12:53:29;;;;;;;0.28;0.28;;;;;;;10.83;61.45;102295.66;15672188;28;20094;-50
2024/02/18 13:01:03;;;;;;;0.95;0.38;;;;;;;10.82;62.17;102278.72;15676837;28;20063;-49
2024/02/18 13:08:40;;;;;;;0.05;0.05;;;;;;;11.22;60.91;102260.69;15680926;28;20055;-50
2024/02/18 13:16:15;;;;;;;1.77;0.57;;;;;;;11.28;61.33;102254.59;15683916;28;20473;-50
2024/02/18 13:23:51;;;;;;;0.22;0.22;;;;;;;10.98;62.80;102232.97;15674794;28;20045;-51
2024/02/18 13:31:25;;;;;;;0.20;0.15;;;;;;;11.50;61.35;102216.16;15675678;28;20045;-50
2024/02/18 13:39:00;;;;;;;0.65;0.65;;;;;;;11.28;61.96;102200.84;15675207;28;20041;-51
2024/02/18 13:46:34;;;;;;;0.00;0.00;;;;;;;11.14;62.89;102180.94;15696196;28;20045;-48
2024/02/18 13:54:09;;;;;;;0.60;0.60;;;;;;;11.41;62.17;102168.81;15749074;28;20330;-47
2024/02/18 14:01:43;;;;;;;0.32;0.32;;;;;;;11.35;62.24;102157.97;15747210;28;20120;-50
2024/02/18 14:09:18;;;;;;;0.00;0.00;;;;;;;11.24;62.96;102145.81;15690447;28;20084;-49
2024/02/18 14:16:52;;;;;;;2.83;2.05;;;;;;;11.30;62.91;102134.31;15716105;28;20075;-51
2024/02/18 14:24:28;;;;;;;0.00;0.00;;;;;;;10.95;63.77;102120.47;15734590;28;20520;-49
2024/02/18 14:32:02;;;;;;;0.10;0.10;;;;;;;10.70;65.24;102122.47;15743099;28;20056;-51
2024/02/18 14:39:40;;;;;;;0.70;0.65;;;;;;;10.56;65.61;102104.44;15741664;28;20037;-51
2024/02/18 14:47:14;;;;;;;0.10;0.10;;;;;;;10.68;65.73;102086.94;15723920;28;20051;-49
2024/02/18 14:54:49;;;;;;;0.10;0.10;;;;;;;10.78;65.72;102081.31;15680661;28;20041;-53
2024/02/18 15:02:23;;;;;;;0.00;0.00;;;;;;;10.75;66.01;102059.34;15730890;28;20076;-49
2024/02/18 15:10:00;;;;;;;0.65;0.50;;;;;;;10.41;67.19;102053.38;15743591;28;20055;-49
2024/02/18 15:17:36;;;;;;;0.08;0.08;;;;;;;10.48;67.09;102038.19;15705114;28;20135;-50
2024/02/18 15:25:13;;;;;;;0.65;0.20;;;;;;;10.45;67.68;102018.97;15663279;28;20060;-50
2024/02/18 15:32:51;;;;;;;0.00;0.00;;;;;;;10.36;67.61;101996.69;15735536;28;20102;-49
2024/02/18 15:40:28;;;;;;;0.43;0.43;;;;;;;10.43;67.95;101981.53;15741588;28;20036;-49
2024/02/18 15:48:02;;;;;;;0.10;0.10;;;;;;;10.26;68.22;101969.25;15718771;28;20049;-49
2024/02/18 15:55:39;;;;;;;0.00;0.00;;;;;;;10.03;69.17;101950.44;15677966;28;20125;-54
2024/02/18 16:03:16;;;;;;;0.00;0.00;;;;;;;10.02;69.40;101935.31;15754449;22;20054;-48
2024/02/18 16:10:52;;;;;;;0.85;0.20;;;;;;;10.00;69.90;101915.91;15861788;28;20146;-49
2024/02/18 16:18:27;;;;;;;0.10;0.10;;;;;;;10.38;68.41;101897.22;15806196;28;20075;-51
2024/02/18 16:26:04;;;;;;;0.10;0.10;;;;;;;9.77;70.60;101875.66;15784229;28;20040;-48
2024/02/18 16:33:39;;;;;;;0.10;0.10;;;;;;;9.50;72.00;101860.88;15763013;28;20039;-51
2024/02/18 16:41:18;;;;;;;1.15;0.80;;;;;;;9.64;71.49;101845.91;15791815;28;20036;-48
2024/02/18 16:48:52;;;;;;;0.47;0.40;;;;;;;9.34;72.12;101828.81;15787701;28;20044;-48
2024/02/18 16:56:27;;;;;;;0.47;0.45;;;;;;;9.50;71.84;101812.63;15797534;28;20461;-51
2024/02/18 17:04:02;;;;;;;0.20;0.20;;;;;;;9.32;72.65;101793.31;15794836;28;20038;-50
2024/02/18 17:11:42;;;;;;;0.00;0.00;;;;;;;9.38;72.06;101781.91;15768519;28;20036;-51
2024/02/18 17:19:18;;;;;;;0.03;0.03;;;;;;;9.47;71.45;101778.19;15772540;28;20041;-48
2024/02/18 17:26:53;;;;;;;0.00;0.00;;;;;;;9.43;71.53;101763.47;15788610;28;20071;-50
2024/02/18 17:34:26;;;;;;;0.10;0.10;;;;;;;9.62;71.27;101754.13;15800478;28;20153;-47
2024/02/18 17:42:03;;;;;;;0.00;0.00;;;;;;;9.37;71.44;101742.72;15771908;28;20044;-50
2024/02/18 17:49:38;;;;;;;0.00;0.00;;;;;;;9.55;70.61;101739.75;15776002;28;20044;-51
2024/02/18 17:57:15;;;;;;;0.03;0.03;;;;;;;9.66;70.04;101731.31;15784130;28;20041;-52
2024/02/18 18:04:49;;;;;;;0.20;0.20;;;;;;;9.48;70.79;101725.41;15796740;28;20041;-49
2024/02/18 18:12:24;;;;;;;0.00;0.00;;;;;;;9.43;70.34;101704.50;15764076;28;20508;-51
2024/02/18 18:19:57;;;;;;;0.15;0.15;;;;;;;9.52;69.98;101695.41;15793848;28;20044;-50
2024/02/18 18:27:34;;;;;;;0.00;0.00;;;;;;;9.72;69.00;101671.59;15784596;28;20078;-48
2024/02/18 18:35:08;;;;;;;0.00;0.00;;;;;;;9.56;68.91;101664.53;15795025;28;20041;-50
2024/02/18 18:42:44;;;;;;;0.63;0.57;;;;;;;9.65;68.46;101643.84;15776889;28;20529;-50
2024/02/18 18:50:18;;;;;;;0.75;0.75;;;;;;;9.88;67.68;101627.69;15782205;28;20132;-48
2024/02/18 18:57:55;;;;;;;0.47;0.47;;;;;;;9.71;67.65;101605.59;15746262;28;20446;-50
2024/02/18 19:05:28;;;;;;;0.35;0.30;;;;;;;9.92;67.17;101583.41;15749281;28;20493;-50
2024/02/18 19:13:03;;;;;;;0.03;0.03;;;;;;;9.75;67.01;101572.03;15764672;28;20028;-47
2024/02/18 19:20:39;;;;;;;0.00;0.00;;;;;;;9.68;67.34;101561.19;15805236;28;20068;-46
2024/02/18 19:28:14;;;;;;;0.80;0.52;;;;;;;9.88;66.69;101553.44;15784339;28;20504;-50
2024/02/18 19:35:48;;;;;;;0.13;0.13;;;;;;;9.95;67.25;101527.53;15749340;28;20041;-49
2024/02/18 19:43:23;;;;;;;0.08;0.08;;;;;;;9.86;68.26;101533.19;15776246;28;20041;-50
2024/02/18 19:50:58;;;;;;;0.32;0.32;;;;;;;9.68;68.07;101515.63;15779325;28;20067;-49
2024/02/18 19:58:33;;;;;;;0.10;0.10;;;;;;;9.54;68.57;101499.56;15805207;28;20044;-50
2024/02/18 20:06:07;;;;;;;0.55;0.20;;;;;;;9.68;67.87;101488.00;15798126;28;20032;-50
2024/02/18 20:13:42;;;;;;;0.00;0.00;;;;;;;9.81;68.66;101481.97;15798576;28;20052;-52
2024/02/18 20:21:19;;;;;;;0.28;0.28;;;;;;;9.42;70.66;101464.38;15807352;28;20131;-51
2024/02/18 20:28:54;;;;;;;0.13;0.13;;;;;;;9.14;72.90;101458.81;15806688;28;20040;-50
2024/02/18 20:36:27;;;;;;;0.00;0.00;;;;;;;9.14;73.59;101450.78;15782489;28;20346;-50
2024/02/18 20:44:02;;;;;;;0.22;0.22;;;;;;;9.27;74.55;101442.91;15787167;28;20400;-51
2024/02/18 20:51:37;;;;;;;0.88;0.40;;;;;;;9.14;75.41;101430.16;15787679;28;20125;-49
2024/02/18 20:59:12;;;;;;;0.00;0.00;;;;;;;9.00;77.17;101436.34;15792102;28;20056;-49
2024/02/18 21:06:46;;;;;;;3.17;0.63;;;;;;;8.82;79.05;101422.47;15795670;28;20757;-53
2024/02/18 21:14:22;;;;;;;0.47;0.47;;;;;;;8.47;81.80;101406.03;15795815;28;20469;-50
2024/02/18 21:21:56;;;;;;;0.00;0.00;;;;;;;8.57;82.02;101392.41;15785026;28;20036;-50
2024/02/18 21:29:32;;;;;;;0.00;0.00;;;;;;;8.55;82.52;101378.38;15796816;28;20048;-48
2024/02/18 21:37:09;;;;;;;0.00;0.00;;;;;;;8.65;83.08;101371.75;15791539;28;20127;-47
2024/02/18 21:44:44;;;;;;;1.38;0.52;;;;;;;8.41;84.27;101345.25;15799259;28;20526;-52
2024/02/18 21:52:18;;;;;;;0.10;0.10;;;;;;;8.12;86.25;101324.56;15767653;28;20374;-50
2024/02/18 21:59:53;;;;;;;;;;;;;;;8.24;86.37;101316.94;15738999;28;20068;-52
2024/02/18 22:07:27;;;;;;;0.00;0.00;;;;;;;8.27;86.54;101296.00;15790855;28;20311;-50
2024/02/18 22:15:01;;;;;;;;;;;;;;;8.42;86.29;101288.88;15786251;28;20467;-53
2024/02/18 22:22:35;;;;;;;0.13;0.13;;;;;;;8.07;87.80;101274.31;15812313;28;20347;-53
2024/02/18 22:30:16;;;;;;;1.05;0.35;;;;;;;8.12;88.41;101268.41;15810368;28;20098;-53
2024/02/18 22:37:50;;;;;;;0.10;0.10;;;;;;;8.17;88.27;101258.00;15807393;28;20130;-52
2024/02/18 22:45:25;;;;;;;0.20;0.20;;;;;;;8.30;88.10;101238.63;15807302;28;20044;-53
2024/02/18 22:53:00;;;;;;;0.15;0.15;;;;;;;8.22;88.48;101230.72;15761291;28;20036;-52
2024/02/18 23:00:37;;;;;;;0.03;0.03;;;;;;;8.15;89.32;101217.22;15801650;28;20449;-53
2024/02/18 23:08:10;;;;;;;0.00;0.00;;;;;;;8.13;89.81;101209.41;15807141;28;20044;-53
2024/02/18 23:15:45;;;;;;;0.73;0.50;;;;;;;7.92;90.52;101187.88;15805264;28;20024;-51
2024/02/18 23:23:22;;;;;;;0.10;0.10;;;;;;;7.98;90.22;101181.81;15761377;28;20040;-52
2024/02/18 23:31:02;;;;;;;0.08;0.08;;;;;;;7.95;90.31;101163.47;15742838;28;20603;-50
2024/02/18 23:38:36;;;;;;;1.70;0.65;;;;;;;8.11;89.52;101163.31;15801544;28;20432;-51
2024/02/18 23:46:12;;;;;;;0.00;0.00;;;;;;;8.25;90.02;101148.25;15807542;28;20064;-51
2024/02/18 23:53:45;;;;;;;0.85;0.20;;;;;;;8.21;89.83;101143.47;15755944;28;20381;-56
